createdAt,value
2018-08-12T00:02:23.776Z,17.48
2018-08-12T00:04:56.869Z,17.44
2018-08-12T00:07:26.295Z,17.25
2018-08-12T00:09:54.975Z,17.17
2018-08-12T00:12:23.735Z,17.07
2018-08-12T00:14:52.427Z,16.98
2018-08-12T00:17:21.115Z,16.87
2018-08-12T00:19:50.010Z,16.73
2018-08-12T00:22:18.681Z,16.56
2018-08-12T00:24:47.298Z,16.45
2018-08-12T00:27:15.979Z,16.34
2018-08-12T00:29:44.618Z,16.37
2018-08-12T00:32:13.227Z,16.42
2018-08-12T00:34:41.886Z,16.51
2018-08-12T00:37:10.554Z,16.51
2018-08-12T00:39:39.163Z,16.45
2018-08-12T00:42:07.819Z,16.51
2018-08-12T00:44:36.439Z,16.46
2018-08-12T00:47:05.143Z,16.53
2018-08-12T00:49:33.742Z,16.52
2018-08-12T00:52:02.459Z,16.53
2018-08-12T00:54:31.098Z,16.52
2018-08-12T00:56:59.802Z,16.60
2018-08-12T00:59:28.498Z,16.40
2018-08-12T01:01:57.186Z,16.24
2018-08-12T01:04:25.844Z,16.30
2018-08-12T01:06:54.589Z,16.34
2018-08-12T01:09:23.338Z,16.39
2018-08-12T01:11:52.030Z,16.45
2018-08-12T01:14:20.718Z,16.52
2018-08-12T01:16:49.349Z,16.53
2018-08-12T01:19:17.992Z,16.61
2018-08-12T01:21:46.620Z,16.67
2018-08-12T01:24:15.251Z,16.57
2018-08-12T01:26:43.915Z,16.64
2018-08-12T01:29:12.610Z,16.73
2018-08-12T01:31:41.207Z,16.83
2018-08-12T01:34:09.825Z,16.68
2018-08-12T01:36:38.459Z,16.61
2018-08-12T01:39:08.755Z,16.76
2018-08-12T01:41:37.397Z,16.90
2018-08-12T01:44:06.175Z,16.90
2018-08-12T01:46:34.839Z,16.97
2018-08-12T01:49:03.579Z,17.01
2018-08-12T01:51:32.265Z,17.07
2018-08-12T01:54:00.908Z,17.14
2018-08-12T01:56:29.606Z,17.23
2018-08-12T01:58:58.247Z,17.31
2018-08-12T02:01:26.901Z,17.38
2018-08-12T02:03:55.514Z,17.38
2018-08-12T02:06:24.198Z,17.41
2018-08-12T02:08:52.883Z,16.36
2018-08-12T02:11:21.521Z,17.52
2018-08-12T02:13:50.151Z,17.46
2018-08-12T02:16:18.774Z,17.37
2018-08-12T02:18:47.415Z,17.49
2018-08-12T02:21:15.995Z,17.64
2018-08-12T02:23:44.579Z,17.36
2018-08-12T02:26:13.229Z,17.16
2018-08-12T02:28:41.871Z,16.87
2018-08-12T02:31:10.504Z,16.67
2018-08-12T02:33:39.189Z,16.53
2018-08-12T02:36:07.831Z,16.59
2018-08-12T02:38:36.504Z,16.57
2018-08-12T02:41:05.196Z,16.51
2018-08-12T02:43:33.887Z,16.41
2018-08-12T02:46:02.649Z,16.46
2018-08-12T02:48:31.403Z,16.42
2018-08-12T02:51:00.076Z,16.36
2018-08-12T02:53:28.747Z,16.63
2018-08-12T02:55:57.412Z,16.48
2018-08-12T02:58:26.034Z,16.92
2018-08-12T03:00:54.638Z,17.00
2018-08-12T03:03:23.290Z,16.97
2018-08-12T03:05:51.920Z,16.98
2018-08-12T03:08:20.606Z,16.92
2018-08-12T03:10:49.257Z,16.88
2018-08-12T03:13:17.830Z,16.65
2018-08-12T03:15:46.463Z,16.68
2018-08-12T03:18:15.094Z,17.02
2018-08-12T03:20:43.730Z,17.47
2018-08-12T03:23:12.395Z,17.61
2018-08-12T03:25:41.064Z,17.21
2018-08-12T03:28:09.678Z,17.55
2018-08-12T03:30:38.299Z,17.71
2018-08-12T03:33:07.202Z,17.88
2018-08-12T03:35:35.842Z,17.76
2018-08-12T03:38:04.502Z,17.61
2018-08-12T03:40:33.136Z,17.45
2018-08-12T03:43:01.755Z,17.47
2018-08-12T03:45:30.419Z,17.69
2018-08-12T03:47:59.047Z,17.81
2018-08-12T03:50:27.724Z,17.82
2018-08-12T03:52:56.459Z,17.60
2018-08-12T03:55:25.113Z,17.56
2018-08-12T03:57:53.762Z,17.68
2018-08-12T04:00:22.572Z,17.73
2018-08-12T04:02:51.299Z,17.91
2018-08-12T04:05:20.013Z,18.13
2018-08-12T04:07:48.667Z,18.07
2018-08-12T04:10:17.442Z,18.07
2018-08-12T04:12:46.074Z,17.93
2018-08-12T04:15:14.767Z,18.08
2018-08-12T04:17:43.426Z,17.79
2018-08-12T04:20:12.544Z,17.62
2018-08-12T04:22:41.151Z,17.54
2018-08-12T04:25:09.855Z,17.31
2018-08-12T04:27:38.495Z,17.54
2018-08-12T04:30:08.671Z,17.68
2018-08-12T04:32:37.335Z,17.90
2018-08-12T04:35:06.674Z,17.94
2018-08-12T04:37:35.278Z,18.49
2018-08-12T04:40:04.127Z,18.44
2018-08-12T04:42:32.803Z,18.76
2018-08-12T04:45:01.454Z,19.17
2018-08-12T04:47:30.095Z,19.40
2018-08-12T04:49:58.724Z,19.96
2018-08-12T04:52:27.330Z,20.61
2018-08-12T04:54:55.978Z,20.60
2018-08-12T04:57:24.602Z,20.06
2018-08-12T04:59:53.282Z,19.76
2018-08-12T05:02:21.895Z,19.74
2018-08-12T05:04:50.505Z,19.85
2018-08-12T05:07:19.183Z,20.57
2018-08-12T05:09:47.874Z,21.59
2018-08-12T05:12:16.554Z,21.85
2018-08-12T05:14:45.154Z,21.67
2018-08-12T05:17:13.810Z,21.84
2018-08-12T05:19:42.494Z,21.25
2018-08-12T05:22:11.384Z,21.03
2018-08-12T05:24:40.042Z,21.47
2018-08-12T05:27:09.080Z,21.20
2018-08-12T05:29:37.775Z,21.06
2018-08-12T05:32:06.535Z,21.29
2018-08-12T05:34:35.188Z,21.56
2018-08-12T05:37:04.096Z,21.84
2018-08-12T05:39:32.735Z,22.03
2018-08-12T05:42:01.388Z,22.29
2018-08-12T05:44:30.162Z,22.62
2018-08-12T05:46:59.049Z,23.10
2018-08-12T05:49:27.717Z,23.64
2018-08-12T05:51:56.315Z,23.97
2018-08-12T05:54:24.936Z,23.94
2018-08-12T05:56:53.646Z,24.29
2018-08-12T05:59:22.318Z,24.35
2018-08-12T06:01:50.934Z,24.67
2018-08-12T06:04:19.522Z,24.84
2018-08-12T06:06:48.200Z,24.92
2018-08-12T06:09:16.814Z,24.93
2018-08-12T06:11:45.406Z,25.20
2018-08-12T06:14:14.105Z,25.46
2018-08-12T06:16:42.753Z,25.93
2018-08-12T06:19:11.451Z,25.78
2018-08-12T06:21:40.104Z,25.93
2018-08-12T06:24:08.882Z,26.40
2018-08-12T06:26:37.654Z,25.81
2018-08-12T06:29:06.808Z,25.52
2018-08-12T06:31:35.502Z,25.69
2018-08-12T06:34:04.160Z,25.71
2018-08-12T06:36:32.827Z,25.80
2018-08-12T06:39:02.095Z,25.91
2018-08-12T06:41:30.753Z,25.89
2018-08-12T06:43:59.495Z,25.86
2018-08-12T06:46:28.721Z,26.18
2018-08-12T06:48:57.432Z,26.17
2018-08-12T06:51:26.100Z,26.83
2018-08-12T06:53:54.799Z,26.77
2018-08-12T06:56:23.720Z,26.77
2018-08-12T06:58:52.609Z,26.13
2018-08-12T07:01:21.323Z,26.70
2018-08-12T07:03:50.032Z,26.85
2018-08-12T07:06:18.984Z,26.72
2018-08-12T07:08:48.158Z,26.77
2018-08-12T07:11:17.395Z,26.97
2018-08-12T07:13:46.586Z,27.10
2018-08-12T07:16:15.861Z,26.51
2018-08-12T07:18:44.818Z,26.55
2018-08-12T07:21:13.926Z,27.19
2018-08-12T07:23:43.091Z,26.71
2018-08-12T07:26:12.106Z,26.97
2018-08-12T07:28:40.990Z,27.09
2018-08-12T07:31:09.647Z,27.32
2018-08-12T07:33:38.298Z,27.72
2018-08-12T07:36:07.297Z,28.33
2018-08-12T07:38:36.457Z,29.32
2018-08-12T07:41:05.295Z,29.35
2018-08-12T07:43:34.127Z,28.69
2018-08-12T07:46:03.088Z,29.56
2018-08-12T07:48:31.999Z,28.84
2018-08-12T07:51:00.811Z,30.05
2018-08-12T07:53:30.520Z,30.36
2018-08-12T07:56:00.336Z,29.20
2018-08-12T07:58:29.190Z,28.42
2018-08-12T08:00:58.091Z,28.40
2018-08-12T08:03:27.124Z,28.53
2018-08-12T08:05:56.142Z,28.74
2018-08-12T08:08:24.971Z,28.81
2018-08-12T08:10:53.715Z,28.26
2018-08-12T08:13:22.529Z,27.88
2018-08-12T08:15:51.380Z,27.78
2018-08-12T08:18:20.052Z,27.53
2018-08-12T08:20:48.919Z,26.70
2018-08-12T08:23:17.603Z,26.78
2018-08-12T08:25:46.308Z,26.85
2018-08-12T08:28:15.239Z,27.53
2018-08-12T08:30:45.161Z,28.14
2018-08-12T08:33:14.439Z,28.50
2018-08-12T08:35:43.431Z,28.67
2018-08-12T08:38:12.392Z,28.99
2018-08-12T08:40:41.640Z,28.86
2018-08-12T08:43:10.850Z,29.21
2018-08-12T08:45:40.114Z,29.77
2018-08-12T08:48:09.037Z,29.99
2018-08-12T08:50:37.782Z,30.38
2018-08-12T08:53:07.522Z,30.04
2018-08-12T08:55:36.877Z,30.68
2018-08-12T08:58:05.851Z,31.02
2018-08-12T09:00:34.722Z,31.08
2018-08-12T09:03:03.527Z,30.43
2018-08-12T09:05:32.743Z,30.43
2018-08-12T09:08:02.081Z,30.36
2018-08-12T09:10:31.223Z,29.55
2018-08-12T09:13:00.211Z,28.19
2018-08-12T09:15:29.747Z,27.92
2018-08-12T09:17:58.763Z,28.29
2018-08-12T09:20:27.443Z,28.76
2018-08-12T09:22:56.425Z,29.39
2018-08-12T09:25:25.667Z,29.91
2018-08-12T09:27:54.371Z,30.01
2018-08-12T09:30:23.202Z,29.69
2018-08-12T09:32:52.890Z,29.80
2018-08-12T09:35:21.933Z,28.39
2018-08-12T09:37:50.825Z,28.24
2018-08-12T09:40:20.174Z,29.85
2018-08-12T09:42:49.376Z,30.44
2018-08-12T09:45:20.546Z,29.89
2018-08-12T09:47:49.754Z,29.41
2018-08-12T09:50:19.534Z,29.73
2018-08-12T09:52:49.459Z,30.50
2018-08-12T09:55:19.334Z,30.25
2018-08-12T09:57:48.822Z,30.70
2018-08-12T10:00:23.249Z,31.34
2018-08-12T10:02:53.883Z,31.38
2018-08-12T10:05:22.629Z,31.95
2018-08-12T10:07:52.404Z,31.43
2018-08-12T10:10:21.373Z,30.32
2018-08-12T10:12:50.406Z,29.03
2018-08-12T10:15:20.060Z,28.02
2018-08-12T10:17:52.726Z,28.88
2018-08-12T10:20:21.457Z,29.86
2018-08-12T10:22:50.263Z,30.78
2018-08-12T10:25:18.974Z,31.78
2018-08-12T10:27:47.714Z,31.84
2018-08-12T10:30:16.529Z,32.37
2018-08-12T10:32:45.387Z,32.05
2018-08-12T10:35:15.419Z,31.57
2018-08-12T10:37:44.364Z,31.36
2018-08-12T10:40:14.868Z,30.54
2018-08-12T10:42:43.894Z,29.96
2018-08-12T10:45:12.982Z,30.25
2018-08-12T10:47:41.874Z,29.86
2018-08-12T10:50:15.772Z,28.77
2018-08-12T10:52:45.258Z,30.13
2018-08-12T10:55:15.245Z,31.23
2018-08-12T10:57:44.450Z,31.51
2018-08-12T11:00:16.376Z,31.76
2018-08-12T11:02:45.779Z,31.85
2018-08-12T11:05:15.442Z,31.53
2018-08-12T11:07:44.826Z,30.09
2018-08-12T11:10:13.950Z,30.22
2018-08-12T11:12:42.943Z,29.81
2018-08-12T11:15:11.732Z,30.92
2018-08-12T11:17:41.177Z,31.31
2018-08-12T11:20:10.451Z,32.40
2018-08-12T11:22:39.403Z,32.45
2018-08-12T11:25:09.353Z,32.03
2018-08-12T11:27:38.039Z,31.30
2018-08-12T11:30:09.118Z,32.16
2018-08-12T11:32:37.821Z,32.82
2018-08-12T11:35:07.482Z,33.44
2018-08-12T11:37:36.127Z,32.67
2018-08-12T11:40:05.149Z,32.09
2018-08-12T11:42:33.795Z,31.23
2018-08-12T11:45:02.982Z,31.50
2018-08-12T11:47:31.647Z,31.82
2018-08-12T11:50:00.240Z,32.87
2018-08-12T11:52:28.947Z,33.78
2018-08-12T11:54:57.699Z,34.11
2018-08-12T11:57:26.336Z,33.58
2018-08-12T11:59:55.037Z,32.32
2018-08-12T12:02:23.688Z,30.97
2018-08-12T12:04:52.368Z,31.63
2018-08-12T12:07:21.007Z,31.76
2018-08-12T12:09:49.657Z,30.24
2018-08-12T12:12:18.300Z,30.69
2018-08-12T12:14:46.913Z,30.96
2018-08-12T12:17:15.491Z,30.95
2018-08-12T12:19:44.146Z,30.44
2018-08-12T12:22:12.767Z,30.44
2018-08-12T12:24:41.403Z,30.35
2018-08-12T12:27:10.064Z,29.26
2018-08-12T12:29:38.687Z,29.78
2018-08-12T12:32:07.678Z,30.58
2018-08-12T12:34:36.356Z,30.72
2018-08-12T12:37:05.004Z,30.13
2018-08-12T12:39:33.939Z,29.82
2018-08-12T12:42:02.588Z,30.20
2018-08-12T12:44:31.262Z,30.30
2018-08-12T12:46:59.954Z,30.86
2018-08-12T12:49:28.688Z,30.86
2018-08-12T12:51:57.837Z,30.45
2018-08-12T12:54:26.866Z,30.34
2018-08-12T12:56:55.500Z,30.24
2018-08-12T12:59:24.450Z,29.26
2018-08-12T13:01:53.092Z,28.44
2018-08-12T13:04:21.977Z,28.93
2018-08-12T13:06:51.027Z,29.12
2018-08-12T13:09:20.472Z,28.63
2018-08-12T13:11:49.508Z,28.80
2018-08-12T13:14:18.197Z,29.17
2018-08-12T13:16:48.467Z,28.97
2018-08-12T13:19:17.397Z,28.43
2018-08-12T13:21:46.234Z,28.10
2018-08-12T13:24:15.700Z,28.37
2018-08-12T13:26:44.600Z,28.63
2018-08-12T13:29:13.460Z,28.34
2018-08-12T13:31:42.553Z,28.52
2018-08-12T13:34:11.639Z,28.26
2018-08-12T13:36:40.408Z,28.08
2018-08-12T13:39:11.468Z,28.40
2018-08-12T13:41:40.350Z,28.48
2018-08-12T13:44:09.167Z,28.43
2018-08-12T13:46:38.211Z,28.10
2018-08-12T13:49:07.141Z,28.06
2018-08-12T13:51:36.950Z,28.32
2018-08-12T13:54:05.786Z,28.19
2018-08-12T13:56:34.920Z,28.28
2018-08-12T13:59:04.111Z,28.31
2018-08-12T14:01:32.980Z,28.43
2018-08-12T14:04:02.275Z,28.37
2018-08-12T14:06:31.362Z,28.52
2018-08-12T14:09:00.255Z,28.16
2018-08-12T14:11:29.094Z,27.99
2018-08-12T14:13:58.029Z,28.16
2018-08-12T14:16:26.872Z,28.29
2018-08-12T14:18:55.713Z,28.07
2018-08-12T14:21:24.432Z,27.74
2018-08-12T14:23:53.482Z,27.71
2018-08-12T14:26:22.614Z,27.91
2018-08-12T14:28:51.906Z,28.18
2018-08-12T14:31:20.809Z,28.29
2018-08-12T14:33:49.430Z,28.25
2018-08-12T14:36:18.070Z,28.25
2018-08-12T14:38:46.718Z,28.21
2018-08-12T14:41:15.315Z,28.26
2018-08-12T14:43:43.994Z,27.97
2018-08-12T14:46:12.628Z,27.80
2018-08-12T14:48:41.326Z,27.67
2018-08-12T14:51:10.047Z,27.36
2018-08-12T14:53:38.654Z,27.30
2018-08-12T14:56:07.353Z,27.49
2018-08-12T14:58:36.077Z,27.81
2018-08-12T15:01:04.778Z,27.85
2018-08-12T15:03:33.439Z,27.66
2018-08-12T15:06:02.090Z,27.42
2018-08-12T15:08:30.775Z,27.24
2018-08-12T15:10:59.399Z,27.15
2018-08-12T15:13:28.294Z,27.06
2018-08-12T15:15:57.031Z,27.26
2018-08-12T15:18:25.753Z,27.47
2018-08-12T15:20:54.409Z,27.43
2018-08-12T15:23:23.078Z,27.49
2018-08-12T15:25:51.698Z,27.61
2018-08-12T15:28:20.313Z,27.49
2018-08-12T15:30:48.974Z,27.40
2018-08-12T15:33:17.657Z,27.34
2018-08-12T15:35:46.340Z,27.09
2018-08-12T15:38:15.023Z,27.04
2018-08-12T15:40:43.662Z,27.16
2018-08-12T15:43:12.335Z,27.14
2018-08-12T15:45:40.951Z,27.03
2018-08-12T15:48:09.594Z,26.92
2018-08-12T15:50:38.253Z,26.95
2018-08-12T15:53:07.107Z,27.02
2018-08-12T15:55:35.747Z,26.87
2018-08-12T15:58:04.482Z,26.79
2018-08-12T16:00:33.113Z,26.76
2018-08-12T16:03:01.823Z,26.71
2018-08-12T16:05:30.495Z,26.72
2018-08-12T16:07:59.230Z,26.80
2018-08-12T16:10:28.085Z,26.79
2018-08-12T16:12:56.735Z,26.57
2018-08-12T16:15:25.430Z,26.56
2018-08-12T16:17:54.103Z,26.62
2018-08-12T16:20:22.781Z,26.49
2018-08-12T16:22:52.319Z,26.50
2018-08-12T16:25:21.971Z,26.45
2018-08-12T16:27:50.650Z,26.42
2018-08-12T16:30:19.652Z,26.43
2018-08-12T16:32:48.423Z,26.26
2018-08-12T16:35:17.947Z,26.15
2018-08-12T16:37:47.103Z,26.10
2018-08-12T16:40:22.359Z,26.13
2018-08-12T16:42:51.313Z,26.09
2018-08-12T16:45:20.463Z,26.05
2018-08-12T16:47:49.234Z,25.98
2018-08-12T16:50:17.887Z,25.94
2018-08-12T16:52:46.638Z,25.98
2018-08-12T16:55:16.686Z,26.03
2018-08-12T16:57:46.174Z,25.94
2018-08-12T17:00:20.488Z,25.87
2018-08-12T17:02:49.368Z,25.81
2018-08-12T17:05:21.158Z,25.79
2018-08-12T17:07:50.026Z,25.67
2018-08-12T17:10:19.433Z,25.62
2018-08-12T17:12:48.113Z,25.44
2018-08-12T17:15:19.377Z,25.29
2018-08-12T17:17:48.623Z,25.22
2018-08-12T17:20:18.222Z,25.14
2018-08-12T17:22:47.139Z,25.16
2018-08-12T17:25:16.058Z,25.16
2018-08-12T17:27:45.040Z,25.18
2018-08-12T17:30:14.949Z,25.04
2018-08-12T17:32:44.230Z,25.03
2018-08-12T17:35:13.009Z,24.94
2018-08-12T17:37:42.824Z,24.81
2018-08-12T17:40:12.815Z,24.75
2018-08-12T17:42:41.514Z,24.62
2018-08-12T17:45:11.455Z,24.52
2018-08-12T17:47:40.539Z,24.41
2018-08-12T17:50:10.734Z,24.36
2018-08-12T17:52:39.447Z,24.32
2018-08-12T17:55:08.372Z,24.24
2018-08-12T17:57:37.408Z,24.13
2018-08-12T18:00:09.102Z,23.97
2018-08-12T18:02:37.962Z,23.88
2018-08-12T18:05:06.804Z,23.72
2018-08-12T18:07:35.490Z,23.63
2018-08-12T18:10:04.296Z,23.56
2018-08-12T18:12:33.024Z,23.43
2018-08-12T18:15:01.749Z,23.21
2018-08-12T18:17:30.338Z,23.30
2018-08-12T18:19:59.028Z,23.27
2018-08-12T18:22:27.714Z,23.26
2018-08-12T18:24:56.362Z,23.26
2018-08-12T18:27:25.009Z,23.23
2018-08-12T18:29:53.663Z,23.22
2018-08-12T18:32:22.247Z,23.21
2018-08-12T18:34:50.911Z,23.21
2018-08-12T18:37:19.555Z,23.22
2018-08-12T18:39:48.221Z,23.26
2018-08-12T18:42:16.867Z,23.25
2018-08-12T18:44:45.529Z,23.24
2018-08-12T18:47:14.223Z,23.20
2018-08-12T18:49:42.838Z,23.16
2018-08-12T18:52:11.465Z,23.10
2018-08-12T18:54:40.094Z,23.08
2018-08-12T18:57:08.775Z,23.04
2018-08-12T18:59:37.401Z,23.02
2018-08-12T19:02:06.070Z,23.00
2018-08-12T19:04:34.702Z,22.97
2018-08-12T19:07:03.354Z,22.96
2018-08-12T19:09:32.006Z,22.92
2018-08-12T19:12:00.655Z,22.85
2018-08-12T19:14:29.288Z,22.80
2018-08-12T19:16:58.117Z,22.74
2018-08-12T19:19:26.815Z,22.73
2018-08-12T19:21:55.461Z,22.68
2018-08-12T19:24:24.141Z,22.57
2018-08-12T19:26:52.898Z,22.50
2018-08-12T19:29:21.585Z,22.39
2018-08-12T19:31:50.242Z,22.31
2018-08-12T19:34:18.881Z,22.21
2018-08-12T19:36:47.509Z,22.14
2018-08-12T19:39:16.145Z,22.13
2018-08-12T19:41:44.783Z,22.15
2018-08-12T19:44:13.449Z,22.09
2018-08-12T19:46:42.107Z,22.01
2018-08-12T19:49:10.802Z,21.96
2018-08-12T19:51:39.382Z,21.88
2018-08-12T19:54:08.087Z,21.86
2018-08-12T19:56:36.756Z,21.77
2018-08-12T19:59:05.367Z,21.66
2018-08-12T20:01:34.020Z,21.57
2018-08-12T20:04:02.675Z,21.48
2018-08-12T20:06:31.371Z,21.48
2018-08-12T20:08:59.986Z,21.45
2018-08-12T20:11:28.678Z,21.42
2018-08-12T20:13:57.356Z,21.38
2018-08-12T20:16:26.444Z,21.31
2018-08-12T20:18:55.055Z,21.30
2018-08-12T20:21:23.691Z,21.28
2018-08-12T20:23:52.310Z,21.25
2018-08-12T20:26:20.949Z,21.23
2018-08-12T20:28:49.605Z,21.18
2018-08-12T20:31:18.336Z,21.13
2018-08-12T20:33:46.948Z,21.08
2018-08-12T20:36:15.598Z,21.01
2018-08-12T20:38:44.302Z,20.97
2018-08-12T20:41:12.920Z,20.93
2018-08-12T20:43:41.627Z,20.90
2018-08-12T20:46:10.295Z,20.87
2018-08-12T20:48:38.999Z,20.80
2018-08-12T20:51:07.960Z,20.72
2018-08-12T20:53:36.615Z,20.67
2018-08-12T20:56:05.276Z,20.59
2018-08-12T20:58:33.919Z,20.49
2018-08-12T21:01:02.563Z,20.44
2018-08-12T21:03:31.400Z,20.41
2018-08-12T21:06:00.065Z,20.39
2018-08-12T21:08:28.714Z,20.34
2018-08-12T21:10:57.344Z,20.26
2018-08-12T21:13:25.994Z,20.16
2018-08-12T21:15:54.618Z,20.15
2018-08-12T21:18:23.262Z,20.12
2018-08-12T21:20:51.878Z,20.10
2018-08-12T21:23:20.540Z,20.04
2018-08-12T21:25:49.148Z,20.06
2018-08-12T21:28:17.789Z,20.01
2018-08-12T21:30:46.434Z,19.95
2018-08-12T21:33:15.062Z,19.92
2018-08-12T21:35:43.695Z,19.92
2018-08-12T21:38:12.302Z,19.92
2018-08-12T21:40:40.938Z,19.83
2018-08-12T21:43:09.565Z,19.74
2018-08-12T21:45:38.255Z,19.70
2018-08-12T21:48:07.151Z,19.73
2018-08-12T21:50:35.751Z,19.66
2018-08-12T21:53:04.477Z,19.61
2018-08-12T21:55:33.090Z,19.52
2018-08-12T21:58:01.696Z,19.44
2018-08-12T22:00:30.385Z,19.41
2018-08-12T22:02:59.083Z,19.43
2018-08-12T22:05:27.742Z,19.52
2018-08-12T22:07:56.403Z,19.38
2018-08-12T22:10:25.055Z,19.46
2018-08-12T22:12:53.755Z,19.50
2018-08-12T22:15:22.375Z,19.52
2018-08-12T22:17:51.042Z,19.68
2018-08-12T22:20:19.644Z,19.53
2018-08-12T22:22:48.282Z,19.46
2018-08-12T22:25:16.884Z,19.26
2018-08-12T22:27:45.509Z,19.04
2018-08-12T22:30:15.854Z,18.94
2018-08-12T22:32:44.496Z,18.86
2018-08-12T22:35:13.265Z,18.88
2018-08-12T22:37:41.952Z,18.86
2018-08-12T22:40:10.654Z,18.92
2018-08-12T22:42:39.506Z,18.98
2018-08-12T22:45:09.887Z,18.99
2018-08-12T22:47:38.599Z,19.07
2018-08-12T22:50:08.059Z,19.14
2018-08-12T22:52:36.763Z,19.20
2018-08-12T22:55:06.175Z,19.08
2018-08-12T22:57:34.888Z,18.89
2018-08-12T23:00:04.658Z,18.79
2018-08-12T23:02:33.354Z,18.79
2018-08-12T23:05:02.006Z,18.80
2018-08-12T23:07:30.629Z,18.79
2018-08-12T23:09:59.333Z,18.76
2018-08-12T23:12:28.019Z,18.76
2018-08-12T23:15:06.421Z,18.81
2018-08-12T23:17:35.143Z,18.71
2018-08-12T23:20:03.888Z,18.65
2018-08-12T23:22:32.517Z,18.52
2018-08-12T23:25:01.242Z,18.46
2018-08-12T23:27:29.901Z,18.38
2018-08-12T23:29:58.653Z,18.30
2018-08-12T23:32:27.325Z,18.28
2018-08-12T23:34:55.935Z,18.44
2018-08-12T23:37:24.647Z,18.42
2018-08-12T23:39:53.311Z,18.37
2018-08-12T23:42:21.954Z,18.33
2018-08-12T23:44:50.581Z,18.34
2018-08-12T23:47:19.255Z,18.31
2018-08-12T23:49:47.954Z,18.25
2018-08-12T23:52:16.701Z,18.27
2018-08-12T23:54:45.525Z,18.22
2018-08-12T23:57:14.197Z,18.24
2018-08-12T23:59:42.891Z,18.22
